12°C Temp
12°C Dewpoint
100% Humidity
Temperature
2 KM/H
1 MPH
1 KTS
Calm
Due North

Wind Speed
Mostly Cloudy
Conditions
Pressure 1023.92 (hPa) - 30.24 (in)
Visibility 1.2 (mi) - 2.0 (km)

Current Conditions
LIMC
Location Malpensa 50(km)
Metar :LIMC 222120Z VRB01KT 2000 DZ BR BKN009 12/12 Q1024 NOSIG
Thu 22nd October 22:20 pm

Airport
  Metar Aviation API Data Provided by https://www.checkwx.com/ PHP scripts by weather34.com ©2020